Time;durP1;ratioP1;P1;durP2;ratioP2;P2;SDS_P1;SDS_P2;PMS_P1;PMS_P2;Temp;Humidity;BMP_temperature;BMP_pressure;BME280_temperature;BME280_humidity;BME280_pressure;Samples;Min_cycle;Max_cycle;Signal;HPM_P1;HPM_P2
2021/12/08 07:04:55;;;;;;;18.45;2.35;;;5.40;99.90;;;;;;4947450;29;20044;-82
2021/12/08 07:07:27;;;;;;;10.38;1.30;;;5.40;99.90;;;;;;4947659;29;20427;-82
2021/12/08 07:10:14;;;;;;;11.32;1.50;;;5.40;99.90;;;;;;4951964;29;20110;-82
2021/12/08 07:12:45;;;;;;;11.53;1.53;;;5.40;99.90;;;;;;4951674;29;20047;-82
2021/12/08 07:15:26;;;;;;;10.35;1.60;;;5.30;99.90;;;;;;4951254;29;20618;-82
2021/12/08 07:17:58;;;;;;;10.98;2.63;;;5.30;99.90;;;;;;4933163;29;20492;-82
2021/12/08 07:20:46;;;;;;;11.75;1.80;;;5.20;99.90;;;;;;4944995;29;20504;-81
2021/12/08 07:23:26;;;;;;;9.77;1.73;;;5.20;99.90;;;;;;4938565;29;20054;-81
2021/12/08 07:25:58;;;;;;;13.05;1.50;;;5.30;99.90;;;;;;4933552;29;20423;-81
2021/12/08 07:28:27;;;;;;;10.10;1.30;;;5.20;99.90;;;;;;4932840;29;20051;-81
2021/12/08 07:31:00;;;;;;;17.00;1.52;;;5.20;99.90;;;;;;4930335;29;20043;-81
2021/12/08 07:33:27;;;;;;;11.90;1.48;;;5.20;99.90;;;;;;4946051;29;20447;-81
2021/12/08 07:35:58;;;;;;;14.57;1.48;;;5.20;99.90;;;;;;4948636;29;20047;-81
2021/12/08 07:38:28;;;;;;;7.43;1.90;;;5.30;99.90;;;;;;4948232;29;20078;-81
2021/12/08 07:41:08;;;;;;;4.65;1.33;;;5.30;99.90;;;;;;4948213;29;20506;-80
2021/12/08 07:43:45;;;;;;;9.65;1.33;;;5.30;99.90;;;;;;4945983;29;20054;-81
2021/12/08 07:46:23;;;;;;;9.90;1.30;;;5.30;99.90;;;;;;4948991;29;20059;-81
2021/12/08 07:48:58;;;;;;;8.95;1.30;;;5.40;99.90;;;;;;4943935;29;20051;-81
2021/12/08 07:51:37;;;;;;;10.88;1.40;;;5.40;99.90;;;;;;4949712;29;20040;-81
2021/12/08 07:54:06;;;;;;;18.13;1.63;;;5.40;99.90;;;;;;4947760;29;20055;-80
2021/12/08 07:56:34;;;;;;;8.65;1.20;;;5.40;99.90;;;;;;4950158;29;20051;-81
2021/12/08 07:59:03;;;;;;;13.07;1.35;;;5.40;99.90;;;;;;4951388;28;20055;-81
2021/12/08 08:01:36;;;;;;;9.48;1.00;;;5.40;99.90;;;;;;4973138;28;20105;-81
2021/12/08 08:04:05;;;;;;;9.02;1.40;;;5.40;99.90;;;;;;4973198;28;20047;-81
2021/12/08 08:06:37;;;;;;;;;;;5.50;99.90;;;;;;4970461;28;20042;-81
2021/12/08 08:09:10;;;;;;;8.90;1.45;;;5.50;99.90;;;;;;4970932;28;19929;-83
2021/12/08 08:11:42;;;;;;;6.40;1.40;;;5.50;99.90;;;;;;4971669;28;20043;-81
2021/12/08 08:14:11;;;;;;;10.27;2.00;;;5.50;99.90;;;;;;4968129;28;20035;-81
2021/12/08 08:16:40;;;;;;;8.13;1.52;;;5.50;99.90;;;;;;4971884;28;20046;-82
2021/12/08 08:19:16;;;;;;;9.70;1.20;;;5.50;99.90;;;;;;4970498;28;20486;-81
2021/12/08 08:21:47;;;;;;;13.15;2.42;;;5.60;99.90;;;;;;4970076;28;20409;-82
2021/12/08 08:24:15;;;;;;;9.13;1.25;;;5.60;99.90;;;;;;4971270;28;20838;-83
2021/12/08 08:26:46;;;;;;;10.90;1.60;;;5.60;99.90;;;;;;4969906;28;20054;-82
2021/12/08 08:29:14;;;;;;;7.30;1.30;;;5.50;99.90;;;;;;4970872;28;20110;-81
2021/12/08 08:31:59;;;;;;;8.15;1.45;;;5.50;99.90;;;;;;4971341;28;20070;-83
2021/12/08 08:34:38;;;;;;;12.60;1.92;;;5.40;99.90;;;;;;4970815;28;20054;-83
2021/12/08 08:37:09;;;;;;;13.40;1.58;;;5.30;99.90;;;;;;4971401;28;20319;-84
2021/12/08 08:39:46;;;;;;;13.95;2.35;;;5.30;99.90;;;;;;4969752;28;20039;-83
2021/12/08 08:42:20;;;;;;;13.88;1.90;;;5.20;99.90;;;;;;4969370;28;20050;-84
2021/12/08 08:44:58;;;;;;;12.18;1.50;;;5.20;99.90;;;;;;4968809;28;20046;-84
2021/12/08 08:47:31;;;;;;;11.90;3.67;;;5.20;99.90;;;;;;4968960;28;20050;-84
2021/12/08 08:49:59;;;;;;;19.48;2.22;;;5.30;99.90;;;;;;4970011;28;20053;-83
2021/12/08 08:52:36;;;;;;;12.43;2.53;;;5.30;99.90;;;;;;4967979;28;20054;-83
2021/12/08 08:55:12;;;;;;;17.08;5.70;;;5.30;99.90;;;;;;4962553;28;20091;-83
2021/12/08 08:57:41;;;;;;;15.02;7.13;;;5.30;99.90;;;;;;4963432;28;20537;-83
2021/12/08 09:00:16;;;;;;;13.63;3.67;;;5.40;99.90;;;;;;4948407;28;20047;-83
2021/12/08 09:02:46;;;;;;;15.30;3.78;;;5.40;99.90;;;;;;4958703;28;20048;-83
2021/12/08 09:05:20;;;;;;;18.92;5.05;;;5.40;99.90;;;;;;4958740;28;20049;-82
2021/12/08 09:08:09;;;;;;;8.95;3.72;;;5.40;99.90;;;;;;4963379;28;20102;-83
2021/12/08 09:11:10;;;;;;;10.57;2.63;;;5.40;99.90;;;;;;4966307;28;20038;-82
2021/12/08 09:13:53;;;;;;;10.45;2.03;;;5.40;99.90;;;;;;4961053;28;20051;-82
2021/12/08 09:16:31;;;;;;;11.65;1.80;;;5.40;99.90;;;;;;4964418;28;20054;-83
2021/12/08 09:19:06;;;;;;;10.65;1.75;;;5.40;99.90;;;;;;4966062;28;20074;-83
2021/12/08 09:22:11;;;;;;;8.70;2.03;;;5.40;99.90;;;;;;4965870;28;20050;-82
2021/12/08 09:24:49;;;;;;;9.48;2.30;;;5.50;99.90;;;;;;4957822;28;20069;-82
2021/12/08 09:27:25;;;;;;;11.82;1.83;;;5.50;99.90;;;;;;4956483;28;20074;-82
2021/12/08 09:29:58;;;;;;;6.57;1.13;;;5.60;99.90;;;;;;4956036;28;21115;-82
2021/12/08 09:32:36;;;;;;;8.13;1.40;;;5.70;99.90;;;;;;4954267;28;20047;-82
2021/12/08 09:35:16;;;;;;;10.68;1.00;;;5.70;99.90;;;;;;4954863;28;20486;-81
2021/12/08 09:37:48;;;;;;;7.85;1.20;;;5.70;99.90;;;;;;4951526;28;20121;-82
2021/12/08 09:40:19;;;;;;;11.15;1.48;;;5.60;99.90;;;;;;4959329;28;20101;-82
2021/12/08 09:42:51;;;;;;;11.65;1.20;;;5.60;99.90;;;;;;4955949;28;20424;-83
2021/12/08 09:45:34;;;;;;;7.47;1.13;;;5.50;99.90;;;;;;4957081;28;20511;-84
2021/12/08 09:48:04;;;;;;;7.53;1.10;;;5.50;99.90;;;;;;4955784;28;20288;-83
2021/12/08 09:50:31;;;;;;;7.88;1.58;;;5.50;99.90;;;;;;4960467;28;20051;-83
2021/12/08 09:52:59;;;;;;;8.82;1.30;;;5.40;99.90;;;;;;4954143;28;20042;-82
2021/12/08 09:55:26;;;;;;;15.15;1.77;;;5.40;99.90;;;;;;4966384;28;20384;-83
2021/12/08 09:57:53;;;;;;;10.10;1.23;;;5.40;99.90;;;;;;4966915;28;20057;-83
2021/12/08 10:00:31;;;;;;;11.00;1.52;;;5.40;99.90;;;;;;4961413;28;21294;-83
2021/12/08 10:03:00;;;;;;;15.73;1.58;;;5.40;99.90;;;;;;4958621;28;20117;-82
2021/12/08 10:05:30;;;;;;;11.00;2.08;;;5.40;99.90;;;;;;4962022;28;20090;-83
2021/12/08 10:07:58;;;;;;;18.17;5.68;;;5.40;99.90;;;;;;4962181;28;20047;-83
2021/12/08 10:10:27;;;;;;;17.00;2.85;;;5.40;99.90;;;;;;4963776;28;20451;-83
2021/12/08 10:12:54;;;;;;;8.38;1.50;;;5.40;99.90;;;;;;4964498;28;20134;-82
2021/12/08 10:15:23;;;;;;;15.10;2.47;;;5.40;99.90;;;;;;4965839;28;20455;-83
2021/12/08 10:17:52;;;;;;;21.48;6.05;;;5.40;99.90;;;;;;4965858;28;20057;-82
2021/12/08 10:20:23;;;;;;;9.10;1.58;;;5.50;99.90;;;;;;4964076;28;20515;-83
2021/12/08 10:23:32;;;;;;;10.95;1.95;;;5.40;99.90;;;;;;4965037;28;20050;-83
2021/12/08 10:26:07;;;;;;;24.33;7.63;;;5.50;99.90;;;;;;4959410;28;20042;-82
2021/12/08 10:28:49;;;;;;;27.58;15.27;;;5.50;99.90;;;;;;4963476;28;20047;-81
2021/12/08 10:31:30;;;;;;;16.35;5.30;;;5.50;99.90;;;;;;4968747;28;20097;-82
2021/12/08 10:36:54;;;;;;;21.23;2.20;;;5.50;99.90;;;;;;4968776;28;20106;-83
2021/12/08 10:39:49;;;;;;;21.13;4.90;;;5.50;99.90;;;;;;4965625;28;20050;-83
2021/12/08 10:42:22;;;;;;;14.10;2.00;;;5.50;99.90;;;;;;4964374;28;20062;-82
2021/12/08 10:47:55;;;;;;;39.15;15.82;;;5.50;99.90;;;;;;4966871;28;20038;-82
2021/12/08 10:56:15;;;;;;;7.97;1.35;;;5.60;99.90;;;;;;4953227;28;20043;-82
2021/12/08 10:58:49;;;;;;;13.90;1.85;;;5.60;99.90;;;;;;4969132;28;20054;-82
2021/12/08 11:01:23;;;;;;;15.80;2.35;;;5.70;99.90;;;;;;4966757;28;20073;-82
2021/12/08 11:04:06;;;;;;;9.90;1.60;;;5.80;99.90;;;;;;4968534;28;20058;-82
2021/12/08 11:06:34;;;;;;;14.32;2.17;;;5.90;99.90;;;;;;4967269;28;20102;-82
2021/12/08 11:09:03;;;;;;;;;;;6.00;99.90;;;;;;4968472;28;20047;-82
2021/12/08 11:11:32;;;;;;;16.77;5.10;;;6.10;99.90;;;;;;4966002;28;19947;-82
2021/12/08 11:14:03;;;;;;;12.80;2.63;;;6.30;99.90;;;;;;4952018;28;20414;-82
2021/12/08 11:16:39;;;;;;;15.02;1.58;;;6.50;99.90;;;;;;4966291;28;20426;-82
2021/12/08 11:19:10;;;;;;;16.92;1.80;;;6.70;99.90;;;;;;4962990;28;20047;-82
2021/12/08 11:21:40;;;;;;;12.90;2.08;;;6.90;99.90;;;;;;4966925;28;20050;-82
2021/12/08 11:24:16;;;;;;;10.82;1.52;;;7.00;99.90;;;;;;4960257;28;20042;-82
2021/12/08 11:26:47;;;;;;;13.07;1.55;;;7.00;99.90;;;;;;4966838;28;20534;-82
2021/12/08 11:29:21;;;;;;;6.55;1.50;;;6.90;99.90;;;;;;4966057;28;20259;-83
2021/12/08 11:31:52;;;;;;;9.18;1.13;;;6.90;99.90;;;;;;4968190;28;20050;-81
2021/12/08 11:34:24;;;;;;;5.75;0.90;;;6.80;99.90;;;;;;4968895;28;20420;-82
2021/12/08 11:36:55;;;;;;;3.33;0.82;;;6.70;99.90;;;;;;4966408;28;20101;-81
2021/12/08 11:39:29;;;;;;;7.82;0.90;;;6.70;99.90;;;;;;4967372;28;20113;-82
2021/12/08 11:42:06;;;;;;;4.90;1.00;;;6.70;99.90;;;;;;4966401;28;20089;-80
2021/12/08 11:44:37;;;;;;;9.00;1.33;;;6.70;99.90;;;;;;4965258;28;20495;-83
2021/12/08 11:47:10;;;;;;;7.65;1.45;;;6.70;99.90;;;;;;4964616;28;20106;-80
2021/12/08 11:49:47;;;;;;;6.10;1.13;;;6.70;99.90;;;;;;4969005;28;20105;-82
2021/12/08 11:52:19;;;;;;;9.45;1.45;;;6.70;99.90;;;;;;4962693;28;20078;-82
2021/12/08 11:54:48;;;;;;;10.25;1.63;;;6.70;99.90;;;;;;4966162;28;20512;-81
2021/12/08 11:57:21;;;;;;;13.15;2.00;;;6.70;99.90;;;;;;4965958;28;20042;-83
2021/12/08 12:00:16;;;;;;;13.38;1.73;;;6.70;99.90;;;;;;4966664;28;20436;-84
2021/12/08 12:02:54;;;;;;;7.85;1.25;;;6.70;99.90;;;;;;4964159;28;20045;-82
2021/12/08 12:05:43;;;;;;;9.85;1.45;;;6.80;99.90;;;;;;4965864;28;20047;-84
2021/12/08 12:08:14;;;;;;;9.27;1.40;;;6.80;99.90;;;;;;4950374;28;20039;-81
2021/12/08 12:10:44;;;;;;;17.85;2.55;;;6.90;99.90;;;;;;4968389;28;20121;-83
2021/12/08 12:13:12;;;;;;;9.55;1.98;;;6.90;99.90;;;;;;4967159;28;20574;-81
2021/12/08 12:15:47;;;;;;;10.70;1.30;;;6.90;99.90;;;;;;4964732;28;20046;-83
2021/12/08 12:18:16;;;;;;;16.58;1.73;;;7.00;99.90;;;;;;4966031;28;20102;-82
2021/12/08 12:21:04;;;;;;;11.27;1.50;;;7.10;99.90;;;;;;4966204;28;20047;-83
2021/12/08 12:23:52;;;;;;;10.50;1.48;;;7.20;99.90;;;;;;4959500;28;20047;-83
2021/12/08 12:26:47;;;;;;;8.73;1.45;;;7.40;99.90;;;;;;4954763;28;20043;-83
2021/12/08 12:29:36;;;;;;;10.38;1.35;;;7.60;99.90;;;;;;4952225;28;20397;-82
2021/12/08 12:32:17;;;;;;;10.30;1.70;;;7.80;99.90;;;;;;4950956;28;20047;-83
2021/12/08 12:34:44;;;;;;;7.40;1.05;;;8.10;99.90;;;;;;4968019;28;20495;-83
2021/12/08 12:37:17;;;;;;;16.77;1.65;;;8.20;99.90;;;;;;4966809;28;20039;-83
2021/12/08 12:39:49;;;;;;;8.75;1.30;;;8.20;99.90;;;;;;4964770;28;20054;-83
2021/12/08 12:42:18;;;;;;;13.70;1.70;;;8.20;99.90;;;;;;4965560;28;20077;-83
2021/12/08 12:45:08;;;;;;;10.38;1.38;;;8.20;99.90;;;;;;4966147;28;20091;-82
2021/12/08 12:47:35;;;;;;;11.98;1.70;;;8.30;99.90;;;;;;4969226;28;20086;-83
2021/12/08 12:50:15;;;;;;;9.50;1.00;;;8.40;99.90;;;;;;4969113;28;20058;-82
2021/12/08 12:52:52;;;;;;;14.68;2.22;;;8.50;99.90;;;;;;4969467;28;20054;-81
2021/12/08 12:55:19;;;;;;;6.07;1.50;;;8.70;99.90;;;;;;4971168;28;20507;-81
2021/12/08 12:58:01;;;;;;;11.15;1.83;;;8.40;99.90;;;;;;4969428;28;20051;-83
2021/12/08 13:00:31;;;;;;;8.38;1.15;;;8.10;99.90;;;;;;4968758;28;20051;-82
2021/12/08 13:02:59;;;;;;;9.00;1.25;;;8.00;99.90;;;;;;4969350;28;20038;-82
2021/12/08 13:05:46;;;;;;;6.53;0.77;;;7.80;99.90;;;;;;4969954;28;20065;-81
2021/12/08 13:08:29;;;;;;;6.03;1.50;;;7.60;99.90;;;;;;4955831;28;20047;-82
2021/12/08 13:10:59;;;;;;;7.40;0.90;;;7.50;99.90;;;;;;4969677;28;22740;-82
2021/12/08 13:13:27;;;;;;;5.10;1.13;;;7.40;99.90;;;;;;4966577;28;20499;-84
2021/12/08 13:15:53;;;;;;;7.28;0.85;;;7.30;99.90;;;;;;4963577;28;20105;-81
2021/12/08 13:18:23;;;;;;;8.80;1.15;;;7.20;99.90;;;;;;4966491;28;20082;-83
2021/12/08 13:20:56;;;;;;;10.85;0.98;;;7.10;99.90;;;;;;4968846;28;20121;-82
2021/12/08 13:23:29;;;;;;;9.88;1.50;;;7.10;99.90;;;;;;4968316;28;20050;-82
2021/12/08 13:26:05;;;;;;;7.72;1.00;;;7.00;99.90;;;;;;4969471;28;20471;-83
2021/12/08 13:28:52;;;;;;;9.05;1.40;;;7.00;99.90;;;;;;4964211;28;20475;-83
2021/12/08 13:34:06;;;;;;;16.23;1.65;;;6.80;99.90;;;;;;4969851;28;20054;-81
2021/12/08 13:37:15;;;;;;;10.70;1.05;;;6.80;99.90;;;;;;4968984;28;20069;-82
2021/12/08 13:39:50;;;;;;;9.40;1.13;;;6.90;99.90;;;;;;4968660;28;20051;-81
2021/12/08 13:42:49;;;;;;;7.88;1.10;;;6.90;99.90;;;;;;4967855;28;20062;-80
2021/12/08 13:45:17;;;;;;;12.52;1.75;;;6.90;99.90;;;;;;4966466;28;20054;-82
2021/12/08 13:48:07;;;;;;;9.68;2.00;;;6.90;99.90;;;;;;4964186;28;20046;-82
2021/12/08 13:50:36;;;;;;;9.55;1.88;;;6.90;99.90;;;;;;4964966;28;20100;-83
2021/12/08 13:53:15;;;;;;;10.75;1.35;;;6.90;99.90;;;;;;4967424;28;20101;-81
2021/12/08 13:55:58;;;;;;;8.02;1.10;;;6.90;99.90;;;;;;4969342;28;20063;-82
2021/12/08 13:58:37;;;;;;;9.30;1.85;;;7.00;99.90;;;;;;4969628;28;20050;-82
2021/12/08 14:01:13;;;;;;;12.98;4.28;;;7.10;99.90;;;;;;4965987;28;20059;-82
2021/12/08 14:03:44;;;;;;;12.55;1.77;;;7.10;99.90;;;;;;4966919;28;20089;-82
2021/12/08 14:06:12;;;;;;;7.72;1.30;;;7.20;99.90;;;;;;4962088;28;20491;-81
2021/12/08 14:08:42;;;;;;;19.38;4.32;;;7.30;99.90;;;;;;4964884;28;20138;-81
2021/12/08 14:11:16;;;;;;;12.05;1.40;;;7.20;99.90;;;;;;4965206;28;20039;-81
2021/12/08 14:13:49;;;;;;;12.52;1.85;;;7.30;99.90;;;;;;4968681;28;20062;-81
2021/12/08 14:16:17;;;;;;;18.23;6.63;;;7.30;99.90;;;;;;4968056;28;20472;-83
2021/12/08 14:18:47;;;;;;;11.25;2.47;;;7.20;99.90;;;;;;4967943;28;20047;-83
2021/12/08 14:21:34;;;;;;;12.13;2.67;;;7.20;99.90;;;;;;4965773;28;20415;-82
2021/12/08 14:24:22;;;;;;;9.60;1.38;;;7.20;99.90;;;;;;4968296;28;20130;-82
2021/12/08 14:26:51;;;;;;;15.23;1.90;;;7.20;99.90;;;;;;4969918;28;20411;-82
2021/12/08 14:29:20;;;;;;;13.30;1.75;;;7.20;99.90;;;;;;4960350;28;20066;-83
2021/12/08 14:31:58;;;;;;;10.38;1.30;;;7.20;99.90;;;;;;4969340;28;20058;-82
2021/12/08 14:34:34;;;;;;;11.00;1.60;;;7.10;99.90;;;;;;4971089;28;20047;-83
2021/12/08 14:37:04;;;;;;;7.88;1.70;;;7.10;99.90;;;;;;4970151;28;20582;-82
2021/12/08 14:39:45;;;;;;;12.60;4.72;;;7.10;99.90;;;;;;4967159;28;20046;-83
2021/12/08 14:42:17;;;;;;;12.43;2.35;;;7.10;99.90;;;;;;4967091;28;20098;-83
2021/12/08 14:44:57;;;;;;;10.88;1.20;;;7.00;99.90;;;;;;4969747;28;20090;-82
2021/12/08 14:47:29;;;;;;;13.88;1.58;;;7.00;99.90;;;;;;4966390;28;20050;-81
2021/12/08 14:50:01;;;;;;;19.42;3.00;;;7.00;99.90;;;;;;4953734;28;20893;-82
2021/12/08 14:52:33;;;;;;;12.80;1.45;;;7.00;99.90;;;;;;4968847;28;20046;-82
2021/12/08 14:55:06;;;;;;;7.82;1.35;;;6.90;99.90;;;;;;4969640;28;20531;-84
2021/12/08 14:57:37;;;;;;;15.43;1.85;;;6.90;99.90;;;;;;4967006;28;20043;-82
2021/12/08 15:00:09;;;;;;;12.18;1.60;;;6.90;99.90;;;;;;4966892;28;20130;-82
2021/12/08 15:02:45;;;;;;;13.52;1.80;;;6.90;99.90;;;;;;4967074;28;20058;-82
2021/12/08 15:05:20;;;;;;;10.38;1.60;;;6.90;99.90;;;;;;4948602;28;20098;-82
2021/12/08 15:07:48;;;;;;;10.07;1.30;;;6.90;99.90;;;;;;4966901;28;20805;-83
2021/12/08 15:10:22;;;;;;;23.52;2.03;;;6.90;99.90;;;;;;4966183;28;20051;-82
2021/12/08 15:13:15;;;;;;;10.90;1.30;;;6.80;99.90;;;;;;4964601;28;20050;-82
2021/12/08 15:15:50;;;;;;;10.68;1.58;;;6.80;99.90;;;;;;4962395;28;20054;-82
2021/12/08 15:18:20;;;;;;;9.57;1.40;;;6.70;99.90;;;;;;4964116;28;20069;-82
2021/12/08 15:21:02;;;;;;;8.95;1.30;;;6.70;99.90;;;;;;4962300;28;20120;-82
2021/12/08 15:23:39;;;;;;;;;;;6.70;99.90;;;;;;4965908;28;20054;-82
2021/12/08 15:26:08;;;;;;;9.60;1.27;;;6.70;99.90;;;;;;4965255;28;19922;-82
2021/12/08 15:28:36;;;;;;;8.05;0.93;;;6.60;99.90;;;;;;4965677;28;20051;-83
2021/12/08 15:31:05;;;;;;;15.55;1.60;;;6.60;99.90;;;;;;4966185;28;20047;-82
2021/12/08 15:33:35;;;;;;;9.32;1.13;;;6.60;99.90;;;;;;4962461;28;20035;-82
2021/12/08 15:36:13;;;;;;;5.70;1.30;;;6.50;99.90;;;;;;4966705;28;20049;-82
2021/12/08 15:38:52;;;;;;;11.27;1.75;;;6.50;99.90;;;;;;4961273;28;20034;-82
2021/12/08 15:41:21;;;;;;;8.55;2.17;;;6.50;99.90;;;;;;4966729;28;20047;-81
2021/12/08 15:44:02;;;;;;;12.57;2.85;;;6.50;99.90;;;;;;4967833;28;20125;-82
2021/12/08 15:46:31;;;;;;;13.82;2.97;;;6.50;99.90;;;;;;4965327;28;20043;-82
2021/12/08 15:49:04;;;;;;;26.75;13.18;;;6.60;99.90;;;;;;4967326;28;20105;-82
2021/12/08 15:51:34;;;;;;;7.03;1.50;;;6.60;99.90;;;;;;4963613;28;20054;-80
2021/12/08 15:54:03;;;;;;;7.80;1.25;;;6.60;99.90;;;;;;4963904;28;20046;-82
2021/12/08 15:57:02;;;;;;;8.65;1.50;;;6.50;99.90;;;;;;4966496;28;20081;-81
2021/12/08 15:59:32;;;;;;;9.35;1.40;;;6.40;99.90;;;;;;4965371;28;20078;-80
2021/12/08 16:02:20;;;;;;;7.85;2.00;;;6.30;99.90;;;;;;4965904;28;20590;-82
2021/12/08 16:04:50;;;;;;;5.60;1.05;;;6.30;99.90;;;;;;4965981;28;20055;-82
2021/12/08 16:07:37;;;;;;;11.40;2.50;;;6.20;99.90;;;;;;4965157;28;20114;-81
2021/12/08 16:10:23;;;;;;;13.15;1.50;;;6.10;99.90;;;;;;4968388;28;20142;-81
2021/12/08 16:13:04;;;;;;;11.35;1.40;;;6.10;99.90;;;;;;4963717;28;20043;-83
2021/12/08 16:15:49;;;;;;;8.55;1.40;;;6.10;99.90;;;;;;4962510;28;20042;-83
2021/12/08 16:18:23;;;;;;;13.15;2.22;;;6.10;99.90;;;;;;4963863;28;20588;-84
2021/12/08 16:20:52;;;;;;;8.57;1.38;;;6.00;99.90;;;;;;4966249;28;20050;-84
2021/12/08 16:23:19;;;;;;;8.88;1.73;;;5.90;99.90;;;;;;4969825;28;20470;-84
2021/12/08 16:25:47;;;;;;;4.72;0.70;;;5.90;99.90;;;;;;4969978;28;20055;-83
2021/12/08 16:28:14;;;;;;;6.80;1.10;;;5.80;99.90;;;;;;4959074;28;20093;-82
2021/12/08 16:30:43;;;;;;;4.75;0.93;;;5.70;99.90;;;;;;4976129;28;20069;-81
2021/12/08 16:33:11;;;;;;;4.50;1.02;;;5.80;99.90;;;;;;4966669;28;20039;-83
2021/12/08 16:35:38;;;;;;;10.13;1.40;;;5.70;99.90;;;;;;4971325;28;20053;-81
2021/12/08 16:38:06;;;;;;;8.23;1.55;;;5.70;99.90;;;;;;4970564;28;20133;-82
2021/12/08 16:43:13;;;;;;;7.55;1.60;;;5.60;99.90;;;;;;4971293;28;20047;-82
2021/12/08 16:45:44;;;;;;;6.60;1.10;;;5.60;99.90;;;;;;4970864;28;20597;-82
2021/12/08 16:48:13;;;;;;;9.57;1.70;;;5.60;99.90;;;;;;4968237;28;20057;-83
2021/12/08 16:50:41;;;;;;;10.52;1.17;;;5.50;99.90;;;;;;4970647;28;20047;-82
2021/12/08 16:53:11;;;;;;;7.45;1.25;;;5.50;99.90;;;;;;4970708;28;20511;-82
2021/12/08 16:55:40;;;;;;;12.52;1.63;;;5.50;99.90;;;;;;4970927;28;20047;-82
2021/12/08 16:58:09;;;;;;;15.73;1.88;;;5.40;99.90;;;;;;4971339;28;20452;-82
2021/12/08 17:00:43;;;;;;;15.52;1.92;;;5.40;99.90;;;;;;4970260;28;20478;-83
2021/12/08 17:03:16;;;;;;;12.63;1.98;;;5.40;99.90;;;;;;4965303;28;20039;-81
2021/12/08 17:05:46;;;;;;;10.98;1.55;;;5.30;99.90;;;;;;4968385;28;20477;-82
2021/12/08 17:08:15;;;;;;;20.23;1.95;;;5.30;99.90;;;;;;4965628;28;20089;-82
2021/12/08 17:10:46;;;;;;;8.48;1.98;;;5.20;99.90;;;;;;4970320;28;20043;-83
2021/12/08 17:13:13;;;;;;;11.43;2.70;;;5.20;99.90;;;;;;4969366;28;20110;-83
2021/12/08 17:15:40;;;;;;;10.65;2.00;;;5.20;99.90;;;;;;4968209;28;20106;-82
2021/12/08 17:18:08;;;;;;;12.73;3.10;;;5.20;99.90;;;;;;4966906;28;20051;-82
2021/12/08 17:20:39;;;;;;;12.32;1.63;;;5.10;99.90;;;;;;4968297;28;20061;-82
2021/12/08 17:23:11;;;;;;;11.18;2.97;;;5.10;99.90;;;;;;4968174;28;20054;-82
2021/12/08 17:25:39;;;;;;;13.75;1.90;;;5.10;99.90;;;;;;4970841;28;20093;-83
2021/12/08 17:28:06;;;;;;;18.95;2.92;;;5.20;99.90;;;;;;4970476;28;20490;-82
2021/12/08 17:30:34;;;;;;;11.43;2.00;;;5.20;99.90;;;;;;4967112;28;20495;-82
2021/12/08 17:33:01;;;;;;;12.02;1.70;;;5.20;99.90;;;;;;4967376;28;20050;-82
2021/12/08 17:35:28;;;;;;;15.43;2.40;;;5.30;99.90;;;;;;4967239;28;20553;-82
2021/12/08 17:37:55;;;;;;;18.77;3.65;;;5.30;99.90;;;;;;4968812;28;20047;-82
2021/12/08 17:40:27;;;;;;;11.90;4.72;;;5.30;99.90;;;;;;4969897;28;20082;-82
2021/12/08 17:42:55;;;;;;;13.32;2.90;;;5.30;99.90;;;;;;4969482;28;20054;-82
2021/12/08 17:45:29;;;;;;;13.77;1.98;;;5.30;99.90;;;;;;4967691;28;20045;-83
2021/12/08 17:47:57;;;;;;;17.05;1.60;;;5.30;99.90;;;;;;4969692;28;20401;-83
2021/12/08 17:50:25;;;;;;;15.13;2.63;;;5.30;99.90;;;;;;4967702;28;20117;-82
2021/12/08 17:52:53;;;;;;;19.00;3.10;;;5.30;99.90;;;;;;4968285;28;20059;-82
2021/12/08 17:55:21;;;;;;;21.55;5.75;;;5.40;99.90;;;;;;4970315;28;20054;-82
2021/12/08 17:57:52;;;;;;;12.40;3.60;;;5.40;99.90;;;;;;4967503;28;20054;-82
2021/12/08 18:00:24;;;;;;;12.30;3.28;;;5.40;99.90;;;;;;4956405;28;20051;-82
2021/12/08 18:02:51;;;;;;;21.90;3.33;;;5.30;99.90;;;;;;4966666;28;20050;-82
2021/12/08 18:05:18;;;;;;;13.52;1.60;;;5.30;99.90;;;;;;4963210;28;20121;-82
2021/12/08 18:07:48;;;;;;;11.85;1.92;;;5.30;99.90;;;;;;4968371;28;20047;-83
2021/12/08 18:10:16;;;;;;;;;;;5.30;99.90;;;;;;4969537;28;20046;-83
2021/12/08 18:12:43;;;;;;;8.10;2.25;;;5.30;99.90;;;;;;4969058;28;20326;-82
2021/12/08 18:15:11;;;;;;;10.45;1.67;;;5.40;99.90;;;;;;4966442;28;20075;-83
2021/12/08 18:17:40;;;;;;;14.48;2.17;;;5.40;99.90;;;;;;4966151;28;20051;-82
2021/12/08 18:20:11;;;;;;;16.88;4.30;;;5.40;99.90;;;;;;4968122;28;20419;-82
2021/12/08 18:22:49;;;;;;;16.85;4.30;;;5.40;99.90;;;;;;4965910;28;20050;-83
2021/12/08 18:25:19;;;;;;;11.68;1.98;;;5.40;99.90;;;;;;4968384;28;20097;-82
2021/12/08 18:27:47;;;;;;;13.65;1.75;;;5.40;99.90;;;;;;4968354;28;20069;-82
2021/12/08 18:30:17;;;;;;;15.25;2.95;;;5.40;99.90;;;;;;4966261;28;20051;-83
2021/12/08 18:32:45;;;;;;;19.95;3.35;;;5.40;99.90;;;;;;4968162;28;20051;-83
2021/12/08 18:35:25;;;;;;;14.10;4.75;;;5.40;99.90;;;;;;4965709;28;20059;-82
2021/12/08 18:37:58;;;;;;;20.20;7.10;;;5.40;99.90;;;;;;4967696;28;20534;-82
2021/12/08 18:40:27;;;;;;;21.92;6.32;;;5.40;99.90;;;;;;4969599;28;20054;-83
2021/12/08 18:42:54;;;;;;;18.75;2.40;;;5.40;99.90;;;;;;4963042;28;20141;-82
2021/12/08 18:45:21;;;;;;;11.73;2.08;;;5.40;99.90;;;;;;4964610;28;21410;-82
2021/12/08 18:47:49;;;;;;;11.85;1.70;;;5.40;99.90;;;;;;4967185;28;20051;-80
2021/12/08 18:50:16;;;;;;;16.73;1.85;;;5.50;99.90;;;;;;4966758;28;20122;-80
2021/12/08 18:52:43;;;;;;;15.32;2.63;;;5.60;99.90;;;;;;4966980;28;20136;-78
2021/12/08 18:55:11;;;;;;;16.98;2.13;;;5.60;99.90;;;;;;4958250;28;20497;-78
2021/12/08 18:57:38;;;;;;;12.80;1.90;;;5.60;99.90;;;;;;4953577;28;20431;-79
2021/12/08 19:00:10;;;;;;;19.25;2.50;;;5.60;99.90;;;;;;4952097;28;20073;-78
2021/12/08 19:02:38;;;;;;;16.85;1.63;;;5.60;99.90;;;;;;4953216;28;20118;-78
2021/12/08 19:05:05;;;;;;;18.88;2.00;;;5.60;99.90;;;;;;4953299;28;20074;-79
2021/12/08 19:07:33;;;;;;;13.35;1.60;;;5.60;99.90;;;;;;4964946;28;20125;-80
2021/12/08 19:10:00;;;;;;;17.30;3.58;;;5.60;99.90;;;;;;4950096;28;20050;-79
2021/12/08 19:12:27;;;;;;;12.05;1.70;;;5.60;99.90;;;;;;4953832;28;20063;-78
2021/12/08 19:14:54;;;;;;;15.27;2.00;;;5.60;99.90;;;;;;4953531;28;20451;-80
2021/12/08 19:17:22;;;;;;;8.95;1.52;;;5.70;99.90;;;;;;4952730;28;20066;-81
2021/12/08 19:19:49;;;;;;;13.77;1.80;;;5.70;99.90;;;;;;4952141;28;20050;-80
2021/12/08 19:22:16;;;;;;;14.80;3.50;;;5.70;99.90;;;;;;4952549;28;20050;-80
2021/12/08 19:24:45;;;;;;;12.88;1.25;;;5.70;99.90;;;;;;4953296;28;20039;-79
2021/12/08 19:27:12;;;;;;;12.27;1.40;;;5.80;99.90;;;;;;4953601;28;20094;-79
2021/12/08 19:29:39;;;;;;;12.60;1.30;;;5.80;99.90;;;;;;4953190;28;20106;-79
2021/12/08 19:32:06;;;;;;;21.02;1.83;;;5.80;99.90;;;;;;4950271;28;20055;-78
2021/12/08 19:34:35;;;;;;;13.02;1.83;;;5.80;99.90;;;;;;4950519;28;20523;-80
2021/12/08 19:37:03;;;;;;;17.98;1.75;;;5.80;99.90;;;;;;4952965;28;20067;-81
2021/12/08 19:39:31;;;;;;;13.63;2.05;;;5.80;99.90;;;;;;4961466;28;20042;-80
2021/12/08 19:41:58;;;;;;;10.15;1.98;;;5.70;99.90;;;;;;4937145;28;20105;-79
2021/12/08 19:44:25;;;;;;;9.65;1.65;;;5.70;99.90;;;;;;4952707;28;20042;-80
2021/12/08 19:46:53;;;;;;;11.73;1.50;;;5.70;99.90;;;;;;4952361;28;20101;-80
2021/12/08 19:49:21;;;;;;;10.60;2.00;;;5.70;99.90;;;;;;4954624;28;20062;-81
2021/12/08 19:51:50;;;;;;;11.32;1.80;;;5.60;99.90;;;;;;4955963;28;20058;-80
2021/12/08 19:54:18;;;;;;;16.15;2.00;;;5.60;99.90;;;;;;4958583;28;20046;-80
2021/12/08 19:56:47;;;;;;;8.93;1.40;;;5.50;99.90;;;;;;4960918;28;20157;-80
2021/12/08 19:59:14;;;;;;;;;;;5.50;99.90;;;;;;4958668;28;20074;-80
2021/12/08 20:01:42;;;;;;;11.68;1.35;;;5.50;99.90;;;;;;4961434;28;19933;-80
2021/12/08 20:04:13;;;;;;;13.32;3.03;;;5.50;99.90;;;;;;4965094;28;20046;-79
2021/12/08 20:06:41;;;;;;;10.20;1.92;;;5.50;99.90;;;;;;4965001;28;20051;-80
2021/12/08 20:09:08;;;;;;;14.30;1.90;;;5.40;99.90;;;;;;4965176;28;20057;-80
2021/12/08 20:11:35;;;;;;;9.00;1.55;;;5.40;99.90;;;;;;4966062;28;20047;-80
2021/12/08 20:14:04;;;;;;;13.63;1.63;;;5.40;99.90;;;;;;4965422;28;20121;-79
2021/12/08 20:16:33;;;;;;;12.68;1.80;;;5.40;99.90;;;;;;4965945;28;20074;-79
2021/12/08 20:19:01;;;;;;;10.75;2.08;;;5.30;99.90;;;;;;4965206;28;20086;-79
2021/12/08 20:21:28;;;;;;;12.27;2.03;;;5.30;99.90;;;;;;4961174;28;20079;-79
2021/12/08 20:23:57;;;;;;;10.90;2.58;;;5.30;99.90;;;;;;4957146;28;20051;-79
2021/12/08 20:26:25;;;;;;;11.20;1.80;;;5.20;99.90;;;;;;4958610;28;20054;-81
2021/12/08 20:29:05;;;;;;;10.15;2.65;;;5.20;99.90;;;;;;4956347;28;20050;-79
2021/12/08 20:31:33;;;;;;;15.02;2.90;;;5.20;99.90;;;;;;4958149;28;20118;-80
2021/12/08 20:34:00;;;;;;;15.63;3.97;;;5.20;99.90;;;;;;4957665;28;20054;-80
2021/12/08 20:36:28;;;;;;;8.18;2.30;;;5.20;99.90;;;;;;4957214;28;20101;-78
2021/12/08 20:38:56;;;;;;;20.50;5.38;;;5.20;99.90;;;;;;4954665;28;20522;-78
2021/12/08 20:41:26;;;;;;;14.57;3.20;;;5.20;99.90;;;;;;4958135;28;20050;-78